OIBL

Details ICAO OIBL (BDH)
Name BANDAR LENGEH
Region Iran
Timezone Asia/Tehran (UTC+4.5)
Plans Departing 4
Arriving 2
Stats Elevation 67 ft / 20 m (AMSL)
Location 26.532269° 54.824801°
Runways 1
Magnetic Variation 2.360° E
Sunrise 2018-05-28 01:30:07 UTC / 2018-05-28 06:00:07 Local
Sunset 2018-05-28 15:08:40 UTC / 2018-05-28 19:38:40 Local
Advertisement - Login to hide

Runways

ID Width Length Bearing (true) Bearing (mag) Surface Threshold Offset Overrun Length
08 148 ft / 45 m 8,192 ft / 2,497 m 80.57° 78.21° Asphalt 0 ft / 0 m 469 ft / 143 m
26 148 ft / 45 m 8,192 ft / 2,497 m 260.58° 258.22° Asphalt 0 ft / 0 m 479 ft / 146 m

Map

Weather


0- 5 10 15 20 25 30 35+ Temperature / ° C

Clouds and Precipitation
Forecast for 2018-05-27 18:00 UTC. Updated 5 hours ago

Ground ~20,000 ft ~40,000 ft Winds

METAR

OIBL 272100Z 27004KT 4000 HZ NSC 29/23 Q1005

TAF

Not found

Frequencies

Tower 122.55 MHz INFO
Tower 121.70 MHz INFO
Warning: Do not use this data for real-world aviation or navigation. No guarantee of current accuracy is given.